Terminal Aerodrome Forecast
Issued by NWS

Home | Current Version | Previous Version | Text Only | Print | Product List | Glossary On
Versions: 1 2 3 4 5 6 7 8 9 10 11 12 13 14 15
000
FTUS42 KMLB 212027 AAB
TAFSFB
TAF AMD
KSFB 212027Z 2120/2218 08012G18KT P6SM VCSH SCT035 SCT060 BKN300
     FM212300 06007KT P6SM SCT025
     FM221400 10007KT P6SM SCT050 BKN100=

USA.gov is the U.S. government's official web portal to all federal, state and local government web resources and services.